CheckWX is a tool to help pilots better visualize weather data.  It is not intended as a substitute for an official pre-flight weather briefing.

17:59:00 UTC

EGHH METAR
Bournemouth Airport
Bournemouth, United Kingdom
Current

39 mins ago

EGHH 251720Z 16005KT CAVOK 23/14 Q1018
Observed
Aug-25 @ 17:20 UTC
Wind
  • 160° at 5 KTS
Visibility
10,000+ meters
Flight Rules
VFR
Cloud Levels
  • Clear skies
Temperature
23°C / 73°F
Dewpoint
14°C / 57°F
Humidity
57%
Altimeter
30.06" Hg
Pressure
1017.92 hPa
Previous

1 hour ago

EGHH 251650Z 17006KT CAVOK 23/13 Q1018
Observed
Aug-25 @ 16:50 UTC
Wind
  • 170° at 6 KTS
Visibility
10,000+ meters
Flight Rules
VFR
Cloud Levels
  • Clear skies
Temperature
23°C / 73°F
Dewpoint
13°C / 55°F
Humidity
53%
Altimeter
30.06" Hg
Pressure
1017.92 hPa
Previous

2 hours ago

EGHH 251620Z 19007KT CAVOK 24/14 Q1018
Observed
Aug-25 @ 16:20 UTC
Wind
  • 190° at 7 KTS
Visibility
10,000+ meters
Flight Rules
VFR
Cloud Levels
  • Clear skies
Temperature
24°C / 75°F
Dewpoint
14°C / 57°F
Humidity
54%
Altimeter
30.06" Hg
Pressure
1017.92 hPa